Time;durP1;ratioP1;P1;durP2;ratioP2;P2;SDS_P1;SDS_P2;PMS_P1;PMS_P2;Temp;Humidity;BMP_temperature;BMP_pressure;BME280_temperature;BME280_humidity;BME280_pressure;Samples;Min_cycle;Max_cycle;Signal;HPM_P1;HPM_P2
2022/01/30 00:00:08;;;;;;;;;7.25;6.75;;;;;;;;5064328;28;9758;-85
2022/01/30 00:02:37;;;;;;;;;3.00;3.00;;;;;;;;5065636;28;9791;-88
2022/01/30 00:05:06;;;;;;;;;7.75;7.75;;;;;;;;5064497;28;9917;-83
2022/01/30 00:07:33;;;;;;;;;9.00;7.50;;;;;;;;5065841;28;9715;-84
2022/01/30 00:10:01;;;;;;;;;9.00;6.00;;;;;;;;5057695;28;9736;-83
2022/01/30 00:12:31;;;;;;;;;9.00;9.00;;;;;;;;5065315;28;9829;-83
2022/01/30 00:14:59;;;;;;;;;7.75;6.25;;;;;;;;5065433;28;9898;-85
2022/01/30 00:17:33;;;;;;;;;6.50;6.50;;;;;;;;5064087;28;9791;-84
2022/01/30 00:20:06;;;;;;;;;9.00;8.00;;;;;;;;5065432;28;9786;-84
2022/01/30 00:22:47;;;;;;;;;7.50;7.00;;;;;;;;5058177;28;9707;-84
2022/01/30 00:25:17;;;;;;;;;7.25;7.25;;;;;;;;5063158;28;9791;-82
2022/01/30 00:27:48;;;;;;;;;7.25;7.25;;;;;;;;5063438;28;9911;-87
2022/01/30 00:30:18;;;;;;;;;6.00;6.00;;;;;;;;5063654;28;9874;-82
2022/01/30 00:32:46;;;;;;;;;4.25;4.25;;;;;;;;5065703;28;9714;-83
2022/01/30 00:35:15;;;;;;;;;3.50;3.50;;;;;;;;5063616;28;9735;-84
2022/01/30 00:37:43;;;;;;;;;2.50;2.50;;;;;;;;5064765;28;9727;-83
2022/01/30 00:40:12;;;;;;;;;4.25;4.25;;;;;;;;5063531;28;9566;-86
2022/01/30 00:42:39;;;;;;;;;8.00;6.25;;;;;;;;5062670;28;9615;-85
2022/01/30 00:45:07;;;;;;;;;7.00;3.50;;;;;;;;5059484;28;9741;-85
2022/01/30 00:47:35;;;;;;;;;6.00;3.00;;;;;;;;5062268;28;9715;-80
2022/01/30 00:50:02;;;;;;;;;1.75;1.75;;;;;;;;5064653;28;9859;-85
2022/01/30 00:52:31;;;;;;;;;3.00;3.00;;;;;;;;5063730;28;9827;-86
2022/01/30 00:54:58;;;;;;;;;1.75;1.00;;;;;;;;5064185;28;9718;-87
2022/01/30 00:57:25;;;;;;;;;6.00;3.00;;;;;;;;5062513;28;9747;-87
2022/01/30 00:59:53;;;;;;;;;7.00;3.00;;;;;;;;5061389;28;9936;-87
2022/01/30 01:02:20;;;;;;;;;4.75;3.50;;;;;;;;5063363;28;9910;-88
2022/01/30 01:04:48;;;;;;;;;4.50;3.50;;;;;;;;5061124;28;9883;-86
2022/01/30 01:07:19;;;;;;;;;2.00;2.00;;;;;;;;5063641;28;9699;-82
2022/01/30 01:09:55;;;;;;;;;6.25;3.00;;;;;;;;5063125;28;9875;-84
2022/01/30 01:23:20;;;;;;;;;6.00;4.50;;;;;;;;5064336;28;9836;-88
2022/01/30 01:23:48;;;;;;;;;6.00;4.25;;;;;;;;5066970;28;9957;-83
2022/01/30 01:26:18;;;;;;;;;5.25;5.00;;;;;;;;5066521;28;9902;-83
2022/01/30 01:28:45;;;;;;;;;6.50;2.75;;;;;;;;5064712;28;9801;-81
2022/01/30 01:31:13;;;;;;;;;3.00;3.00;;;;;;;;5060328;28;9633;-82
2022/01/30 01:33:53;;;;;;;;;8.75;7.00;;;;;;;;5062691;28;9807;-85
2022/01/30 01:36:22;;;;;;;;;4.25;3.75;;;;;;;;5061432;28;9983;-85
2022/01/30 01:38:49;;;;;;;;;9.00;5.25;;;;;;;;5096265;28;9909;-85
2022/01/30 01:41:20;;;;;;;;;2.75;2.75;;;;;;;;5063122;28;9947;-85
2022/01/30 01:43:49;;;;;;;;;1.25;1.25;;;;;;;;5063524;28;9774;-78
2022/01/30 01:46:20;;;;;;;;;10.25;6.50;;;;;;;;5059078;28;9793;-87
2022/01/30 01:48:50;;;;;;;;;5.75;3.00;;;;;;;;5061149;28;10043;-82
2022/01/30 01:51:21;;;;;;;;;2.00;2.00;;;;;;;;5062543;28;9883;-87
2022/01/30 01:53:51;;;;;;;;;7.75;5.25;;;;;;;;5062203;28;10014;-85
2022/01/30 01:56:20;;;;;;;;;6.00;6.00;;;;;;;;5062668;28;10182;-83
2022/01/30 01:58:48;;;;;;;;;3.25;3.25;;;;;;;;5061594;28;10305;-85
2022/01/30 02:01:15;;;;;;;;;9.50;7.50;;;;;;;;5095377;28;9897;-82
2022/01/30 02:03:44;;;;;;;;;11.00;5.25;;;;;;;;5063770;28;10216;-86
2022/01/30 02:06:15;;;;;;;;;7.00;2.50;;;;;;;;5052541;28;11498;-84
2022/01/30 02:08:45;;;;;;;;;2.50;2.50;;;;;;;;5056524;28;10137;-82
2022/01/30 02:11:16;;;;;;;;;6.75;2.75;;;;;;;;5056684;28;10036;-85
2022/01/30 02:13:54;;;;;;;;;4.50;2.00;;;;;;;;5061643;28;10017;-83
2022/01/30 02:25:01;;;;;;;;;5.25;3.00;;;;;;;;5060789;28;9949;-85
2022/01/30 02:27:34;;;;;;;;;3.00;2.00;;;;;;;;5061766;28;10124;-85
2022/01/30 02:30:01;;;;;;;;;1.75;1.75;;;;;;;;5062728;28;10023;-85
2022/01/30 02:32:29;;;;;;;;;3.50;1.50;;;;;;;;5058139;28;10075;-83
2022/01/30 02:34:56;;;;;;;;;7.75;6.00;;;;;;;;5060528;28;10104;-84
2022/01/30 02:37:23;;;;;;;;;4.25;3.00;;;;;;;;5060952;28;10273;-84
2022/01/30 02:39:52;;;;;;;;;7.25;7.00;;;;;;;;5062475;28;10256;-82
2022/01/30 02:42:24;;;;;;;;;6.50;3.50;;;;;;;;5061155;28;10339;-85
2022/01/30 02:44:55;;;;;;;;;6.50;5.00;;;;;;;;5092736;28;11015;-85
2022/01/30 02:47:26;;;;;;;;;3.50;3.50;;;;;;;;5093798;28;10230;-85
2022/01/30 02:50:31;;;;;;;;;6.00;5.25;;;;;;;;5061968;28;10211;-85
2022/01/30 02:53:01;;;;;;;;;5.25;2.25;;;;;;;;5056274;28;10250;-83
2022/01/30 02:55:29;;;;;;;;;7.00;4.50;;;;;;;;5062351;28;10164;-84
2022/01/30 02:57:57;;;;;;;;;3.00;3.00;;;;;;;;5061886;28;10326;-85
2022/01/30 03:00:24;;;;;;;;;3.25;2.25;;;;;;;;5061578;28;10176;-84
2022/01/30 03:02:51;;;;;;;;;4.00;2.25;;;;;;;;5061830;28;10200;-85
2022/01/30 03:05:19;;;;;;;;;2.75;1.00;;;;;;;;5062315;28;9948;-86
2022/01/30 03:07:46;;;;;;;;;2.75;2.00;;;;;;;;5061043;28;9964;-84
2022/01/30 03:10:14;;;;;;;;;2.00;1.00;;;;;;;;5062295;28;10129;-81
2022/01/30 03:12:43;;;;;;;;;3.00;2.00;;;;;;;;5061624;28;10085;-86
2022/01/30 03:15:11;;;;;;;;;1.00;1.00;;;;;;;;5061798;28;10228;-83
2022/01/30 03:17:40;;;;;;;;;1.75;1.75;;;;;;;;5058670;28;10176;-84
2022/01/30 03:20:09;;;;;;;;;2.00;2.00;;;;;;;;5061605;28;10203;-87
2022/01/30 03:22:37;;;;;;;;;1.00;1.00;;;;;;;;5066364;28;10718;-86
2022/01/30 03:25:05;;;;;;;;;3.00;3.00;;;;;;;;5065160;28;10424;-87
2022/01/30 03:27:32;;;;;;;;;1.00;1.00;;;;;;;;5066244;28;10471;-83
2022/01/30 03:30:06;;;;;;;;;3.00;3.00;;;;;;;;5065721;28;10226;-86
2022/01/30 03:32:35;;;;;;;;;1.75;1.75;;;;;;;;5065217;28;10211;-84
2022/01/30 03:35:02;;;;;;;;;3.00;1.00;;;;;;;;5066065;28;10298;-85
2022/01/30 03:37:29;;;;;;;;;2.50;2.50;;;;;;;;5065174;28;10282;-83
2022/01/30 03:39:57;;;;;;;;;3.25;1.75;;;;;;;;5095690;28;10350;-84
2022/01/30 03:42:24;;;;;;;;;0.75;0.75;;;;;;;;5063086;28;11125;-84
2022/01/30 03:44:52;;;;;;;;;4.50;1.00;;;;;;;;5065762;28;10212;-83
2022/01/30 03:47:24;;;;;;;;;1.25;1.00;;;;;;;;5064648;28;10332;-79
2022/01/30 03:49:52;;;;;;;;;3.75;1.00;;;;;;;;5064732;28;10400;-82
2022/01/30 03:52:19;;;;;;;;;1.00;1.00;;;;;;;;5063863;28;10232;-83
2022/01/30 03:54:46;;;;;;;;;2.00;0.75;;;;;;;;5064319;28;10151;-85
2022/01/30 03:57:14;;;;;;;;;2.50;1.00;;;;;;;;5064372;28;10287;-86
2022/01/30 03:59:42;;;;;;;;;2.50;1.25;;;;;;;;5064238;28;10231;-85
2022/01/30 04:02:09;;;;;;;;;1.00;1.00;;;;;;;;5065452;28;10206;-84
2022/01/30 04:04:38;;;;;;;;;4.50;4.50;;;;;;;;5065245;28;10995;-82
2022/01/30 04:07:06;;;;;;;;;1.00;1.00;;;;;;;;5063950;28;10398;-82
2022/01/30 04:09:34;;;;;;;;;1.75;1.75;;;;;;;;5054977;28;10103;-83
2022/01/30 04:12:01;;;;;;;;;2.50;1.25;;;;;;;;5079118;28;10231;-84
2022/01/30 04:14:30;;;;;;;;;1.00;1.00;;;;;;;;5062483;28;10179;-83
2022/01/30 04:16:57;;;;;;;;;2.00;2.00;;;;;;;;5060103;28;10267;-84
2022/01/30 04:19:25;;;;;;;;;2.25;2.25;;;;;;;;5062509;28;10248;-82
2022/01/30 04:21:54;;;;;;;;;2.75;1.00;;;;;;;;5064339;28;10347;-83
2022/01/30 04:24:21;;;;;;;;;1.00;1.00;;;;;;;;5061329;28;10236;-83
2022/01/30 04:26:49;;;;;;;;;0.75;0.75;;;;;;;;5062999;28;10148;-85
2022/01/30 04:29:17;;;;;;;;;2.25;0.00;;;;;;;;5063506;28;10175;-84
2022/01/30 04:31:45;;;;;;;;;0.50;0.25;;;;;;;;5064226;28;10060;-82
2022/01/30 04:34:12;;;;;;;;;1.50;0.00;;;;;;;;5063342;28;10291;-82
2022/01/30 04:36:53;;;;;;;;;0.00;0.00;;;;;;;;5064615;28;10244;-82
2022/01/30 04:39:38;;;;;;;;;3.00;1.00;;;;;;;;5063554;28;10276;-83
2022/01/30 04:42:26;;;;;;;;;1.00;1.00;;;;;;;;5058550;28;10358;-82
2022/01/30 04:53:18;;;;;;;;;1.00;1.00;;;;;;;;5058151;28;11077;-89
2022/01/30 04:58:47;;;;;;;;;1.00;1.00;;;;;;;;5064106;28;10526;-87
2022/01/30 05:01:20;;;;;;;;;5.25;1.75;;;;;;;;5063512;28;10394;-86
2022/01/30 05:03:58;;;;;;;;;1.00;1.00;;;;;;;;5063724;28;10613;-83
2022/01/30 05:06:41;;;;;;;;;1.00;1.00;;;;;;;;5064860;28;10631;-81
2022/01/30 05:09:09;;;;;;;;;2.00;1.00;;;;;;;;5062873;28;10505;-85
2022/01/30 05:11:38;;;;;;;;;5.50;1.75;;;;;;;;5064122;28;10657;-84
2022/01/30 05:14:06;;;;;;;;;1.00;1.00;;;;;;;;5054748;28;10791;-84
2022/01/30 05:16:35;;;;;;;;;2.50;2.25;;;;;;;;5062111;28;11101;-86
2022/01/30 05:19:02;;;;;;;;;0.75;0.75;;;;;;;;5064328;28;10888;-87
2022/01/30 05:21:30;;;;;;;;;1.00;1.00;;;;;;;;5062885;28;10830;-82
2022/01/30 05:23:58;;;;;;;;;1.00;1.00;;;;;;;;5064275;28;10743;-83
2022/01/30 05:26:27;;;;;;;;;0.00;0.00;;;;;;;;5061759;28;11619;-83
2022/01/30 05:28:56;;;;;;;;;0.50;0.50;;;;;;;;5064040;28;10912;-84
2022/01/30 05:31:24;;;;;;;;;1.25;1.00;;;;;;;;5061018;28;10607;-84
2022/01/30 05:33:53;;;;;;;;;0.25;0.25;;;;;;;;5062805;28;10872;-84
2022/01/30 05:36:22;;;;;;;;;2.00;2.00;;;;;;;;5061317;28;11104;-87
2022/01/30 05:38:50;;;;;;;;;1.00;1.00;;;;;;;;5061793;28;10670;-86
2022/01/30 05:41:17;;;;;;;;;0.50;0.50;;;;;;;;5063329;28;10684;-82
2022/01/30 05:43:47;;;;;;;;;2.00;1.00;;;;;;;;5054992;28;10676;-82
2022/01/30 05:46:32;;;;;;;;;1.00;1.00;;;;;;;;5061254;28;10669;-82
2022/01/30 05:49:00;;;;;;;;;3.00;1.00;;;;;;;;5054562;28;10887;-81
2022/01/30 05:51:27;;;;;;;;;2.75;0.25;;;;;;;;5065160;28;10717;-86
2022/01/30 05:53:55;;;;;;;;;0.75;0.75;;;;;;;;5066219;28;10901;-81
2022/01/30 05:56:22;;;;;;;;;0.25;0.25;;;;;;;;5053396;28;10742;-81
2022/01/30 05:58:49;;;;;;;;;1.00;1.00;;;;;;;;5057463;28;10657;-82
2022/01/30 06:01:18;;;;;;;;;0.00;0.00;;;;;;;;5048430;28;10648;-83
2022/01/30 06:03:46;;;;;;;;;0.75;0.75;;;;;;;;5061673;28;10816;-77
2022/01/30 06:06:13;;;;;;;;;0.25;0.25;;;;;;;;5057302;28;10819;-80
2022/01/30 06:08:46;;;;;;;;;1.75;0.25;;;;;;;;5061308;28;11005;-80
2022/01/30 06:11:15;;;;;;;;;4.75;0.00;;;;;;;;5061789;28;10803;-77
2022/01/30 06:13:42;;;;;;;;;0.00;0.00;;;;;;;;5066735;28;11178;-78
2022/01/30 06:16:09;;;;;;;;;0.00;0.00;;;;;;;;5067556;28;11846;-80
2022/01/30 06:18:38;;;;;;;;;0.50;0.50;;;;;;;;5054518;28;11073;-78
2022/01/30 06:21:05;;;;;;;;;5.25;1.75;;;;;;;;5055062;28;11116;-78
2022/01/30 06:23:32;;;;;;;;;3.75;1.00;;;;;;;;5052209;28;11498;-80
2022/01/30 06:26:00;;;;;;;;;1.25;1.25;;;;;;;;5049402;28;11479;-78
2022/01/30 06:28:27;;;;;;;;;0.25;0.25;;;;;;;;5057689;28;12782;-80
2022/01/30 06:30:54;;;;;;;;;1.00;1.00;;;;;;;;5051488;28;11426;-80
2022/01/30 06:33:21;;;;;;;;;0.00;0.00;;;;;;;;5056224;28;12235;-81
2022/01/30 06:35:50;;;;;;;;;1.25;1.00;;;;;;;;5061292;28;11455;-80
2022/01/30 06:38:17;;;;;;;;;3.25;0.25;;;;;;;;5061796;28;11468;-80
2022/01/30 06:40:44;;;;;;;;;1.00;1.00;;;;;;;;5057150;28;11483;-80
2022/01/30 06:43:11;;;;;;;;;4.00;1.50;;;;;;;;5061685;28;12111;-79
2022/01/30 06:45:42;;;;;;;;;1.00;1.00;;;;;;;;5061067;28;11485;-79
2022/01/30 06:48:10;;;;;;;;;1.00;1.00;;;;;;;;5059962;28;11467;-80
2022/01/30 06:50:37;;;;;;;;;1.00;1.00;;;;;;;;5060070;28;11612;-79
2022/01/30 06:53:05;;;;;;;;;2.00;2.00;;;;;;;;5086119;28;11526;-81
2022/01/30 06:55:33;;;;;;;;;1.50;1.50;;;;;;;;5065042;28;11527;-78
2022/01/30 06:58:00;;;;;;;;;1.00;1.00;;;;;;;;5062179;28;11459;-80
2022/01/30 07:00:27;;;;;;;;;3.50;1.00;;;;;;;;5067498;27;11384;-80
2022/01/30 07:02:55;;;;;;;;;1.75;1.75;;;;;;;;5100928;28;11544;-82
2022/01/30 07:05:23;;;;;;;;;2.00;2.00;;;;;;;;5067016;28;11462;-80
2022/01/30 07:07:51;;;;;;;;;3.00;2.00;;;;;;;;5068271;28;11532;-78
2022/01/30 07:10:19;;;;;;;;;2.00;2.00;;;;;;;;5064571;28;11507;-77
2022/01/30 07:12:47;;;;;;;;;4.50;4.00;;;;;;;;5066924;28;11525;-79
2022/01/30 07:15:15;;;;;;;;;1.25;1.25;;;;;;;;5065267;28;11603;-79
2022/01/30 07:17:42;;;;;;;;;5.25;2.00;;;;;;;;5067139;28;11498;-79
2022/01/30 07:20:11;;;;;;;;;1.00;1.00;;;;;;;;5064890;28;11583;-81
2022/01/30 07:22:38;;;;;;;;;1.00;1.00;;;;;;;;5065811;28;11514;-82
2022/01/30 07:25:07;;;;;;;;;1.75;1.75;;;;;;;;5067285;28;11509;-83
2022/01/30 07:27:36;;;;;;;;;0.50;0.50;;;;;;;;5067552;28;11522;-83
2022/01/30 07:30:04;;;;;;;;;3.00;1.00;;;;;;;;5062774;28;11565;-87
2022/01/30 07:32:31;;;;;;;;;3.50;1.75;;;;;;;;5061779;28;11513;-82
2022/01/30 07:34:59;;;;;;;;;1.00;1.00;;;;;;;;5067399;28;11670;-87
2022/01/30 07:37:26;;;;;;;;;2.00;2.00;;;;;;;;5066016;28;11531;-87
2022/01/30 07:39:58;;;;;;;;;1.25;1.25;;;;;;;;5067778;28;11582;-84
2022/01/30 07:42:25;;;;;;;;;5.75;0.75;;;;;;;;5067065;28;11591;-85
2022/01/30 07:44:54;;;;;;;;;1.00;1.00;;;;;;;;5066260;28;12300;-87
2022/01/30 07:47:22;;;;;;;;;4.50;1.00;;;;;;;;5064820;28;11500;-85
2022/01/30 07:49:51;;;;;;;;;2.50;1.00;;;;;;;;5062583;28;11524;-86
2022/01/30 07:52:19;;;;;;;;;4.00;4.00;;;;;;;;5068997;28;11630;-87
2022/01/30 07:54:47;;;;;;;;;4.00;2.00;;;;;;;;5066766;28;11523;-88
2022/01/30 07:57:14;;;;;;;;;5.25;2.00;;;;;;;;5068213;28;11522;-86
2022/01/30 07:59:41;;;;;;;;;1.25;1.25;;;;;;;;5066069;28;11512;-88
2022/01/30 08:02:10;;;;;;;;;3.00;0.00;;;;;;;;5062138;28;11483;-84
2022/01/30 08:04:38;;;;;;;;;0.25;0.25;;;;;;;;5064150;28;11519;-86
2022/01/30 08:07:06;;;;;;;;;1.00;1.00;;;;;;;;5062885;28;12454;-85
2022/01/30 08:09:33;;;;;;;;;1.00;1.00;;;;;;;;5063047;28;11530;-83
2022/01/30 08:12:01;;;;;;;;;1.75;1.75;;;;;;;;5062640;28;11556;-81
2022/01/30 08:14:28;;;;;;;;;1.00;1.00;;;;;;;;5064091;28;11531;-88
2022/01/30 08:16:56;;;;;;;;;2.00;1.00;;;;;;;;5047560;28;11632;-75
2022/01/30 08:19:25;;;;;;;;;1.75;1.75;;;;;;;;5059308;28;11604;-73
2022/01/30 08:21:52;;;;;;;;;1.00;1.00;;;;;;;;5061691;28;12766;-76
2022/01/30 08:24:22;;;;;;;;;4.00;2.00;;;;;;;;5058219;28;11551;-74
2022/01/30 08:26:49;;;;;;;;;2.25;1.00;;;;;;;;5059684;28;11516;-75
2022/01/30 08:29:16;;;;;;;;;3.00;1.00;;;;;;;;5059828;28;11525;-76
2022/01/30 08:31:44;;;;;;;;;7.50;4.00;;;;;;;;5058828;28;11515;-75
2022/01/30 08:34:11;;;;;;;;;2.50;2.50;;;;;;;;5060557;28;11540;-78
2022/01/30 08:36:40;;;;;;;;;4.50;4.00;;;;;;;;5060909;28;11590;-76
2022/01/30 08:39:07;;;;;;;;;6.25;6.25;;;;;;;;5057146;28;11654;-77
2022/01/30 08:41:34;;;;;;;;;5.25;5.25;;;;;;;;5057917;28;12367;-74
2022/01/30 08:44:02;;;;;;;;;11.00;9.00;;;;;;;;5059285;28;11520;-74
2022/01/30 08:46:29;;;;;;;;;5.25;5.00;;;;;;;;5059217;28;11565;-74
2022/01/30 08:48:56;;;;;;;;;13.25;10.50;;;;;;;;5059063;28;11558;-73
2022/01/30 08:51:24;;;;;;;;;14.50;11.75;;;;;;;;5057689;28;11621;-73
2022/01/30 08:53:52;;;;;;;;;7.25;4.00;;;;;;;;5059153;28;11671;-74
2022/01/30 08:56:21;;;;;;;;;9.25;9.25;;;;;;;;5058007;28;11445;-77
2022/01/30 08:58:49;;;;;;;;;13.00;10.50;;;;;;;;5057690;28;11554;-75
2022/01/30 09:01:16;;;;;;;;;10.00;8.50;;;;;;;;5059066;28;12323;-77
2022/01/30 09:03:45;;;;;;;;;13.25;12.75;;;;;;;;5058704;28;11473;-73
2022/01/30 09:06:12;;;;;;;;;9.50;9.50;;;;;;;;5060069;28;11568;-78
2022/01/30 09:08:39;;;;;;;;;10.50;8.50;;;;;;;;5051964;28;11552;-77
2022/01/30 09:11:08;;;;;;;;;12.50;10.50;;;;;;;;5060841;28;11521;-79
2022/01/30 09:13:36;;;;;;;;;10.00;8.50;;;;;;;;5054158;28;11501;-74
2022/01/30 09:16:03;;;;;;;;;15.00;13.50;;;;;;;;5057994;28;11472;-75
2022/01/30 09:18:31;;;;;;;;;8.50;5.25;;;;;;;;5058696;28;11595;-75
2022/01/30 09:20:58;;;;;;;;;7.50;5.00;;;;;;;;5057872;28;11514;-75
2022/01/30 09:23:25;;;;;;;;;7.00;5.00;;;;;;;;5049505;28;11543;-74
2022/01/30 09:25:53;;;;;;;;;7.50;5.50;;;;;;;;5058370;28;11982;-76
2022/01/30 09:28:22;;;;;;;;;3.00;3.00;;;;;;;;5058495;28;11275;-74
2022/01/30 09:30:49;;;;;;;;;6.75;5.75;;;;;;;;5056949;28;12136;-75
2022/01/30 09:33:16;;;;;;;;;10.00;7.00;;;;;;;;5057997;28;10865;-76
2022/01/30 09:35:44;;;;;;;;;5.25;5.25;;;;;;;;5061131;28;10935;-76
2022/01/30 09:38:11;;;;;;;;;11.00;6.00;;;;;;;;5057899;28;10745;-74
2022/01/30 09:40:39;;;;;;;;;9.50;8.00;;;;;;;;5055184;28;10709;-72
2022/01/30 09:43:07;;;;;;;;;14.50;11.00;;;;;;;;5052193;28;10922;-74
2022/01/30 09:45:35;;;;;;;;;7.00;7.00;;;;;;;;5045975;28;10671;-72
2022/01/30 09:48:03;;;;;;;;;7.75;6.00;;;;;;;;5056211;28;10806;-73
2022/01/30 09:50:31;;;;;;;;;6.75;6.75;;;;;;;;5059636;28;10563;-74
2022/01/30 09:52:58;;;;;;;;;6.50;5.00;;;;;;;;5060285;28;10509;-77
2022/01/30 09:55:26;;;;;;;;;5.75;5.75;;;;;;;;5052691;28;10271;-78
2022/01/30 09:57:53;;;;;;;;;6.25;5.00;;;;;;;;5058675;28;10175;-77
2022/01/30 10:00:20;;;;;;;;;19.00;16.50;;;;;;;;5053234;28;10204;-78
2022/01/30 10:02:49;;;;;;;;;6.00;5.00;;;;;;;;5056312;28;10496;-77
2022/01/30 10:05:18;;;;;;;;;6.00;6.00;;;;;;;;5056499;28;10198;-74
2022/01/30 10:07:49;;;;;;;;;5.00;5.00;;;;;;;;5058571;28;10844;-77
2022/01/30 10:10:21;;;;;;;;;4.75;2.00;;;;;;;;5058186;28;10119;-78
2022/01/30 10:13:02;;;;;;;;;8.00;4.25;;;;;;;;5057942;28;9881;-76
2022/01/30 10:15:30;;;;;;;;;6.50;4.00;;;;;;;;5060118;28;9875;-79
2022/01/30 10:17:59;;;;;;;;;1.50;1.50;;;;;;;;5055833;28;9778;-78
2022/01/30 10:20:27;;;;;;;;;4.25;4.25;;;;;;;;5058079;28;9751;-75
2022/01/30 10:22:56;;;;;;;;;2.75;2.75;;;;;;;;5058045;28;9579;-74
2022/01/30 10:25:25;;;;;;;;;6.25;4.00;;;;;;;;5059184;28;9485;-85
2022/01/30 10:28:06;;;;;;;;;9.25;9.00;;;;;;;;5059385;28;9633;-75
2022/01/30 10:30:48;;;;;;;;;3.67;3.33;;;;;;;;5059104;28;9313;-76
2022/01/30 10:33:18;;;;;;;;;2.33;2.33;;;;;;;;5059526;28;9270;-76
2022/01/30 10:35:51;;;;;;;;;2.00;2.00;;;;;;;;5059141;28;9263;-78
2022/01/30 10:38:23;;;;;;;;;3.00;3.00;;;;;;;;5058379;28;9270;-74
2022/01/30 10:40:55;;;;;;;;;2.67;2.67;;;;;;;;5056069;28;9045;-74
2022/01/30 10:43:22;;;;;;;;;3.00;3.00;;;;;;;;5059693;28;9233;-74
2022/01/30 10:45:50;;;;;;;;;7.00;3.00;;;;;;;;5058036;28;10931;-74
2022/01/30 10:48:21;;;;;;;;;3.33;3.00;;;;;;;;5057783;28;9738;-76
2022/01/30 10:50:49;;;;;;;;;2.50;2.25;;;;;;;;5057741;28;8981;-73
2022/01/30 10:53:22;;;;;;;;;4.00;4.00;;;;;;;;5057036;28;8994;-73
2022/01/30 10:55:49;;;;;;;;;4.00;4.00;;;;;;;;5058033;28;8883;-74
2022/01/30 10:58:18;;;;;;;;;4.25;2.75;;;;;;;;5057739;28;8870;-74
2022/01/30 11:00:49;;;;;;;;;3.50;2.50;;;;;;;;5056968;28;9452;-76
2022/01/30 11:03:55;;;;;;;;;5.00;3.00;;;;;;;;5059886;28;8862;-75
2022/01/30 11:06:29;;;;;;;;;2.00;2.00;;;;;;;;5049590;28;8863;-73
2022/01/30 11:09:06;;;;;;;;;4.50;1.50;;;;;;;;5060492;28;8855;-74
2022/01/30 11:11:40;;;;;;;;;3.75;2.50;;;;;;;;5057161;28;8955;-75
2022/01/30 11:14:20;;;;;;;;;3.00;3.00;;;;;;;;5059044;28;8863;-75
2022/01/30 11:19:40;;;;;;;;;4.75;4.00;;;;;;;;5057475;28;8909;-75
2022/01/30 11:22:09;;;;;;;;;3.75;3.75;;;;;;;;5056625;28;8847;-76
2022/01/30 11:24:44;;;;;;;;;5.00;5.00;;;;;;;;5058575;28;8882;-75
2022/01/30 11:27:11;;;;;;;;;3.50;3.50;;;;;;;;5057816;28;8965;-74
2022/01/30 11:29:39;;;;;;;;;5.50;2.25;;;;;;;;5059692;28;8870;-76
2022/01/30 11:32:08;;;;;;;;;4.25;4.25;;;;;;;;5061260;28;8793;-73
2022/01/30 11:34:36;;;;;;;;;2.75;2.75;;;;;;;;5060390;28;8868;-73
2022/01/30 11:37:05;;;;;;;;;3.00;3.00;;;;;;;;5059954;28;9006;-74
2022/01/30 11:39:38;;;;;;;;;2.75;2.50;;;;;;;;5058894;28;9710;-74
2022/01/30 11:42:11;;;;;;;;;5.25;3.75;;;;;;;;5060151;28;8866;-74
2022/01/30 11:44:40;;;;;;;;;5.00;2.00;;;;;;;;5061912;28;8948;-75
2022/01/30 11:47:24;;;;;;;;;6.00;4.00;;;;;;;;5061681;28;8863;-75
2022/01/30 11:50:07;;;;;;;;;8.00;4.75;;;;;;;;5062432;28;8862;-78
2022/01/30 11:53:01;;;;;;;;;7.50;7.50;;;;;;;;5058973;28;8859;-74
2022/01/30 11:55:50;;;;;;;;;5.50;3.25;;;;;;;;5060801;28;8944;-74
2022/01/30 11:58:41;;;;;;;;;2.75;2.25;;;;;;;;5061318;28;10148;-73
2022/01/30 12:01:37;;;;;;;;;3.75;2.25;;;;;;;;5054832;28;8815;-75
2022/01/30 12:04:16;;;;;;;;;5.00;2.00;;;;;;;;5057711;28;8881;-73
2022/01/30 12:06:50;;;;;;;;;3.50;2.75;;;;;;;;5060584;28;8915;-73
2022/01/30 12:09:38;;;;;;;;;3.00;3.00;;;;;;;;5063633;28;8843;-74
2022/01/30 12:12:09;;;;;;;;;3.00;3.00;;;;;;;;5059392;28;8876;-74
2022/01/30 12:14:55;;;;;;;;;3.75;1.75;;;;;;;;5065101;28;8886;-75
2022/01/30 12:17:50;;;;;;;;;5.75;2.75;;;;;;;;5063154;28;8848;-73
2022/01/30 12:20:19;;;;;;;;;3.50;2.00;;;;;;;;5060259;28;8901;-73
2022/01/30 12:22:46;;;;;;;;;5.00;3.25;;;;;;;;5064330;28;8863;-74
2022/01/30 12:25:37;;;;;;;;;6.00;2.00;;;;;;;;5060782;28;8978;-75
2022/01/30 12:28:11;;;;;;;;;3.67;2.33;;;;;;;;5061765;28;9696;-77
2022/01/30 12:30:52;;;;;;;;;4.25;2.50;;;;;;;;5059563;28;8877;-75
2022/01/30 12:33:45;;;;;;;;;4.00;2.25;;;;;;;;5061230;28;8860;-74
2022/01/30 12:36:17;;;;;;;;;8.75;2.75;;;;;;;;5062212;28;8855;-74
2022/01/30 12:38:45;;;;;;;;;4.25;2.75;;;;;;;;5061260;28;8940;-77
2022/01/30 12:41:20;;;;;;;;;3.00;3.00;;;;;;;;5059401;28;8867;-74
2022/01/30 12:43:53;;;;;;;;;4.00;4.00;;;;;;;;5060026;28;8861;-75
2022/01/30 12:46:22;;;;;;;;;2.00;2.00;;;;;;;;5062326;28;8851;-76
2022/01/30 12:49:07;;;;;;;;;6.00;3.00;;;;;;;;5063227;28;8851;-78
2022/01/30 12:51:37;;;;;;;;;6.75;4.25;;;;;;;;5060472;28;8875;-77
2022/01/30 12:54:05;;;;;;;;;3.00;3.00;;;;;;;;5058251;28;8917;-78
2022/01/30 12:56:33;;;;;;;;;4.00;3.50;;;;;;;;5058914;28;8893;-75
2022/01/30 12:59:07;;;;;;;;;4.50;3.50;;;;;;;;5063279;28;8910;-78
2022/01/30 13:01:36;;;;;;;;;5.75;3.25;;;;;;;;5062824;28;8816;-74
2022/01/30 13:04:08;;;;;;;;;5.00;4.00;;;;;;;;5062383;28;8850;-76
2022/01/30 13:06:38;;;;;;;;;3.00;3.00;;;;;;;;5060890;28;9656;-78
2022/01/30 13:09:06;;;;;;;;;4.00;4.00;;;;;;;;5063220;28;9951;-76
2022/01/30 13:11:34;;;;;;;;;3.75;3.00;;;;;;;;5059495;28;8867;-78
2022/01/30 13:14:07;;;;;;;;;5.00;5.00;;;;;;;;5063189;28;8902;-77
2022/01/30 13:16:38;;;;;;;;;3.00;3.00;;;;;;;;5061031;28;8890;-75
2022/01/30 13:19:09;;;;;;;;;7.00;5.00;;;;;;;;5060294;28;8879;-77
2022/01/30 13:21:37;;;;;;;;;4.00;2.50;;;;;;;;5061998;28;8887;-77
2022/01/30 13:24:07;;;;;;;;;3.00;1.25;;;;;;;;5062451;28;8855;-78
2022/01/30 13:26:39;;;;;;;;;3.25;3.25;;;;;;;;5063015;28;8872;-78
2022/01/30 13:29:11;;;;;;;;;2.25;2.25;;;;;;;;5090254;28;8878;-77
2022/01/30 13:31:39;;;;;;;;;2.50;2.50;;;;;;;;5061720;28;8879;-78
2022/01/30 13:34:18;;;;;;;;;3.25;3.00;;;;;;;;5061481;28;8883;-77
2022/01/30 13:36:53;;;;;;;;;2.00;1.50;;;;;;;;5061690;28;8901;-78
2022/01/30 13:39:27;;;;;;;;;2.00;2.00;;;;;;;;5062152;28;8887;-79
2022/01/30 13:42:15;;;;;;;;;3.75;2.00;;;;;;;;5062137;28;8981;-76
2022/01/30 13:44:51;;;;;;;;;4.00;4.00;;;;;;;;5061384;28;8854;-78
2022/01/30 13:47:21;;;;;;;;;4.00;2.25;;;;;;;;5053638;28;8880;-79
2022/01/30 13:49:50;;;;;;;;;7.00;5.00;;;;;;;;5062523;28;8880;-79
2022/01/30 13:52:19;;;;;;;;;6.00;3.00;;;;;;;;5061258;28;8855;-79
2022/01/30 13:54:59;;;;;;;;;5.00;5.00;;;;;;;;5061037;28;8862;-78
2022/01/30 13:57:33;;;;;;;;;4.25;3.00;;;;;;;;5062533;28;8877;-76
2022/01/30 14:00:11;;;;;;;;;3.75;3.75;;;;;;;;5061471;28;9794;-77
2022/01/30 14:02:52;;;;;;;;;3.75;2.75;;;;;;;;5057920;28;8840;-77
2022/01/30 14:05:25;;;;;;;;;5.25;3.00;;;;;;;;5061624;28;8869;-77
2022/01/30 14:07:52;;;;;;;;;3.00;3.00;;;;;;;;5062992;28;8864;-78
2022/01/30 14:10:21;;;;;;;;;2.00;2.00;;;;;;;;5061979;28;8859;-77
2022/01/30 14:12:51;;;;;;;;;2.00;2.00;;;;;;;;5060730;28;8855;-77
2022/01/30 14:15:24;;;;;;;;;2.00;2.00;;;;;;;;5061960;28;9701;-77
2022/01/30 14:18:09;;;;;;;;;4.50;2.00;;;;;;;;5061795;28;8891;-77
2022/01/30 14:20:36;;;;;;;;;2.50;2.00;;;;;;;;5061091;28;8901;-77
2022/01/30 14:23:05;;;;;;;;;2.00;2.00;;;;;;;;5060473;28;8853;-77
2022/01/30 14:25:33;;;;;;;;;1.75;1.75;;;;;;;;5053682;28;8866;-77
2022/01/30 14:28:00;;;;;;;;;4.00;3.00;;;;;;;;5060593;28;8881;-76
2022/01/30 14:30:38;;;;;;;;;2.00;2.00;;;;;;;;5056868;28;8978;-77
2022/01/30 14:33:06;;;;;;;;;1.50;1.50;;;;;;;;5060028;28;8921;-77
2022/01/30 14:35:36;;;;;;;;;2.33;2.00;;;;;;;;5060328;28;8882;-77
2022/01/30 14:38:04;;;;;;;;;2.00;2.00;;;;;;;;5062680;28;9091;-76
2022/01/30 14:40:35;;;;;;;;;2.75;2.75;;;;;;;;5061609;28;8881;-78
2022/01/30 14:43:02;;;;;;;;;3.00;3.00;;;;;;;;5061515;28;8887;-76
2022/01/30 14:45:31;;;;;;;;;5.25;4.25;;;;;;;;5062289;28;8862;-77
2022/01/30 14:48:00;;;;;;;;;4.00;4.00;;;;;;;;5060654;28;9636;-77
2022/01/30 14:50:27;;;;;;;;;3.25;3.25;;;;;;;;5061429;28;8881;-78
2022/01/30 14:52:55;;;;;;;;;3.00;3.00;;;;;;;;5059289;28;8909;-77
2022/01/30 14:55:23;;;;;;;;;3.00;3.00;;;;;;;;5057989;28;8879;-77
2022/01/30 14:57:53;;;;;;;;;7.75;7.75;;;;;;;;5061034;28;8888;-78
2022/01/30 15:00:22;;;;;;;;;2.00;2.00;;;;;;;;5059824;28;9672;-78
2022/01/30 15:02:50;;;;;;;;;5.25;3.00;;;;;;;;5061417;28;8838;-77
2022/01/30 15:05:19;;;;;;;;;5.00;2.00;;;;;;;;5051860;28;8877;-78
2022/01/30 15:07:56;;;;;;;;;2.50;1.00;;;;;;;;5061830;28;8883;-77
2022/01/30 15:10:25;;;;;;;;;3.00;2.25;;;;;;;;5058143;28;9001;-78
2022/01/30 15:12:52;;;;;;;;;3.50;2.00;;;;;;;;5061234;28;8990;-77
2022/01/30 15:15:21;;;;;;;;;2.00;2.00;;;;;;;;5061378;28;8986;-79
2022/01/30 15:17:52;;;;;;;;;2.00;2.00;;;;;;;;5059815;28;8910;-81
2022/01/30 15:20:20;;;;;;;;;1.00;1.00;;;;;;;;5060922;28;8838;-82
2022/01/30 15:22:48;;;;;;;;;3.00;2.25;;;;;;;;5065855;28;9658;-79
2022/01/30 15:25:16;;;;;;;;;3.00;3.00;;;;;;;;5065416;28;8843;-78
2022/01/30 15:27:44;;;;;;;;;2.75;2.75;;;;;;;;5063098;28;8875;-76
2022/01/30 15:30:12;;;;;;;;;4.25;2.25;;;;;;;;5062418;28;8885;-79
2022/01/30 15:32:40;;;;;;;;;3.25;2.00;;;;;;;;5066084;28;8868;-75
2022/01/30 15:35:09;;;;;;;;;3.50;2.00;;;;;;;;5067336;28;8865;-75
2022/01/30 15:37:37;;;;;;;;;2.25;1.75;;;;;;;;5065405;28;8848;-77